createdAt,value
2022-08-18T00:00:24.882Z,47.34
2022-08-18T00:03:12.263Z,47.51
2022-08-18T00:06:16.924Z,47.41
2022-08-18T00:09:06.951Z,47.43
2022-08-18T00:11:53.258Z,47.43
2022-08-18T00:14:39.314Z,47.46
2022-08-18T00:17:25.630Z,47.65
2022-08-18T00:20:19.074Z,47.53
2022-08-18T00:23:10.286Z,47.52
2022-08-18T00:25:57.759Z,47.67
2022-08-18T00:28:44.994Z,47.71
2022-08-18T00:31:31.657Z,47.96
2022-08-18T00:34:20.055Z,47.78
2022-08-18T00:37:06.022Z,47.68
2022-08-18T00:39:54.007Z,47.96
2022-08-18T00:42:44.438Z,47.89
2022-08-18T00:45:36.270Z,47.83
2022-08-18T00:48:23.933Z,47.86
2022-08-18T00:51:21.394Z,48.01
2022-08-18T00:54:11.512Z,47.92
2022-08-18T00:57:01.406Z,48.08
2022-08-18T01:00:20.197Z,48.09
2022-08-18T01:03:11.454Z,48.03
2022-08-18T01:06:02.244Z,47.95
2022-08-18T01:08:48.385Z,48.09
2022-08-18T01:11:37.053Z,48.13
2022-08-18T01:14:22.905Z,48.01
2022-08-18T01:17:30.806Z,48.12
2022-08-18T01:20:55.318Z,48.24
2022-08-18T01:23:41.725Z,48.10
2022-08-18T01:26:30.379Z,48.17
2022-08-18T01:29:19.363Z,48.20
2022-08-18T01:32:05.826Z,48.24
2022-08-18T01:34:52.397Z,48.36
2022-08-18T01:37:38.525Z,48.22
2022-08-18T01:41:21.187Z,48.29
2022-08-18T01:43:31.178Z,48.25
2022-08-18T01:46:20.824Z,48.39
2022-08-18T01:49:08.546Z,48.44
2022-08-18T01:51:55.753Z,48.44
2022-08-18T01:54:43.311Z,48.33
2022-08-18T01:57:30.517Z,48.31
2022-08-18T02:00:18.151Z,48.35
2022-08-18T02:03:10.048Z,48.23
2022-08-18T02:06:00.879Z,48.61
2022-08-18T02:08:53.542Z,48.53
2022-08-18T02:11:40.784Z,48.50
2022-08-18T02:14:58.713Z,48.86
2022-08-18T02:17:46.203Z,48.59
2022-08-18T02:20:32.321Z,48.60
2022-08-18T02:23:18.164Z,48.74
2022-08-18T02:26:08.554Z,48.79
2022-08-18T02:28:54.262Z,48.71
2022-08-18T02:31:40.068Z,48.82
2022-08-18T02:34:25.923Z,48.83
2022-08-18T02:37:15.362Z,48.71
2022-08-18T02:40:01.456Z,48.81
2022-08-18T02:42:47.649Z,48.70
2022-08-18T02:45:33.526Z,48.58
2022-08-18T02:48:40.050Z,48.81
2022-08-18T02:51:26.972Z,48.99
2022-08-18T02:54:12.832Z,48.68
2022-08-18T02:56:59.005Z,48.80
2022-08-18T02:59:47.452Z,48.91
2022-08-18T03:02:34.540Z,48.90
2022-08-18T03:05:20.582Z,48.90
2022-08-18T03:08:06.636Z,48.91
2022-08-18T03:10:54.740Z,49.01
2022-08-18T03:13:40.619Z,49.12
2022-08-18T03:16:26.641Z,49.00
2022-08-18T03:19:16.248Z,49.00
2022-08-18T03:22:03.082Z,49.07
2022-08-18T03:24:49.250Z,49.11
2022-08-18T03:27:35.107Z,49.19
2022-08-18T03:30:21.274Z,49.04
2022-08-18T03:33:07.034Z,49.03
2022-08-18T03:35:54.925Z,49.12
2022-08-18T03:38:43.440Z,49.23
2022-08-18T03:41:57.192Z,49.16
2022-08-18T03:44:39.850Z,49.30
2022-08-18T03:47:27.457Z,49.25
2022-08-18T03:50:14.074Z,49.41
2022-08-18T03:53:00.503Z,49.27
2022-08-18T03:55:46.167Z,49.41
2022-08-18T03:58:32.111Z,49.37
2022-08-18T04:01:25.714Z,49.37
2022-08-18T04:04:19.628Z,49.44
2022-08-18T04:07:10.778Z,49.34
2022-08-18T04:09:58.941Z,49.50
2022-08-18T04:12:45.929Z,49.45
2022-08-18T04:15:32.782Z,49.42
2022-08-18T04:18:19.577Z,49.31
2022-08-18T04:21:10.094Z,49.48
2022-08-18T04:23:55.955Z,49.53
2022-08-18T04:26:46.095Z,49.43
2022-08-18T04:29:32.332Z,49.53
2022-08-18T04:32:19.490Z,49.40
2022-08-18T04:35:13.972Z,49.55
2022-08-18T04:38:02.146Z,49.54
2022-08-18T04:40:48.182Z,49.39
2022-08-18T04:43:34.618Z,49.31
2022-08-18T04:46:24.034Z,49.39
2022-08-18T04:49:12.022Z,49.62
2022-08-18T04:52:36.334Z,49.51
2022-08-18T04:55:24.831Z,49.60
2022-08-18T04:58:10.632Z,49.44
2022-08-18T05:00:59.073Z,49.56
2022-08-18T05:03:50.226Z,49.52
2022-08-18T05:06:36.363Z,49.54
2022-08-18T05:09:23.141Z,49.60
2022-08-18T05:12:13.472Z,49.50
2022-08-18T05:14:59.559Z,49.57
2022-08-18T05:17:50.498Z,49.39
2022-08-18T05:20:40.861Z,49.57
2022-08-18T05:23:29.659Z,49.41
2022-08-18T05:26:17.191Z,49.46
2022-08-18T05:29:18.957Z,49.56
2022-08-18T05:32:36.967Z,49.54
2022-08-18T05:35:25.658Z,49.53
2022-08-18T05:38:24.852Z,49.56
2022-08-18T05:41:13.654Z,49.49
2022-08-18T05:44:01.156Z,49.50
2022-08-18T05:47:18.790Z,49.86
2022-08-18T05:50:11.085Z,49.61
2022-08-18T05:53:00.113Z,49.61
2022-08-18T05:56:25.062Z,49.72
2022-08-18T05:59:14.828Z,49.66
2022-08-18T06:02:36.283Z,49.86
2022-08-18T06:05:44.135Z,49.58
2022-08-18T06:08:42.664Z,49.70
2022-08-18T06:11:28.462Z,49.67
2022-08-18T06:14:14.610Z,49.51
2022-08-18T06:17:20.720Z,49.53
2022-08-18T06:20:27.321Z,49.64
2022-08-18T06:23:28.064Z,49.52
2022-08-18T06:26:40.394Z,49.79
2022-08-18T06:29:29.929Z,49.45
2022-08-18T06:32:54.982Z,49.60
2022-08-18T06:35:52.976Z,49.56
2022-08-18T06:38:47.876Z,49.54
2022-08-18T06:41:42.747Z,49.34
2022-08-18T06:44:52.349Z,49.65
2022-08-18T06:47:44.725Z,49.39
2022-08-18T06:50:43.514Z,49.40
2022-08-18T06:53:57.717Z,49.58
2022-08-18T06:56:43.382Z,49.22
2022-08-18T06:59:30.782Z,49.18
2022-08-18T07:02:24.421Z,49.14
2022-08-18T07:05:20.732Z,49.66
2022-08-18T07:08:11.905Z,49.06
2022-08-18T07:11:13.518Z,49.19
2022-08-18T07:14:23.418Z,49.29
2022-08-18T07:17:13.917Z,48.97
2022-08-18T07:20:24.230Z,49.02
2022-08-18T07:23:40.059Z,48.77
2022-08-18T07:26:26.083Z,48.78
2022-08-18T07:29:16.179Z,48.90
2022-08-18T07:32:15.803Z,49.00
2022-08-18T07:35:19.749Z,48.83
2022-08-18T07:38:42.121Z,48.74
2022-08-18T07:41:33.944Z,48.79
2022-08-18T07:44:55.335Z,48.90
2022-08-18T07:48:15.940Z,48.90
2022-08-18T07:51:17.335Z,48.83
2022-08-18T07:54:49.258Z,48.98
2022-08-18T07:57:46.813Z,48.67
2022-08-18T08:04:02.998Z,48.60
2022-08-18T08:07:24.580Z,48.76
2022-08-18T08:10:35.936Z,48.52
2022-08-18T08:13:55.162Z,48.75
2022-08-18T08:16:58.275Z,48.62
2022-08-18T08:20:01.868Z,48.38
2022-08-18T08:23:24.176Z,48.52
2022-08-18T08:26:45.077Z,48.19
2022-08-18T08:30:12.132Z,47.93
2022-08-18T08:33:25.648Z,48.06
2022-08-18T08:36:17.303Z,47.94
2022-08-18T08:39:34.830Z,48.10
2022-08-18T08:42:30.638Z,48.09
2022-08-18T08:45:29.828Z,47.88
2022-08-18T08:48:28.783Z,47.54
2022-08-18T08:51:31.691Z,47.27
2022-08-18T08:54:45.215Z,47.09
2022-08-18T08:57:36.145Z,46.85
2022-08-18T09:00:22.552Z,46.61
2022-08-18T09:03:08.385Z,46.33
2022-08-18T09:06:00.209Z,46.26
2022-08-18T09:09:12.299Z,46.02
2022-08-18T09:12:04.793Z,45.90
2022-08-18T09:15:30.067Z,45.75
2022-08-18T09:18:19.465Z,45.52
2022-08-18T09:21:26.535Z,45.61
2022-08-18T09:24:48.413Z,45.69
2022-08-18T09:28:11.703Z,45.19
2022-08-18T09:31:21.225Z,45.15
2022-08-18T09:34:34.147Z,45.14
2022-08-18T09:37:26.544Z,45.16
2022-08-18T09:41:01.956Z,44.63
2022-08-18T09:47:23.807Z,44.38
2022-08-18T09:50:24.601Z,46.19
2022-08-18T09:50:38.376Z,44.40
2022-08-18T09:53:38.156Z,53.20
2022-08-18T09:56:53.942Z,47.41
2022-08-18T09:59:49.604Z,48.38
2022-08-18T10:02:36.993Z,47.64
2022-08-18T10:05:27.698Z,47.62
2022-08-18T10:08:21.625Z,47.24
2022-08-18T10:11:32.232Z,47.26
2022-08-18T10:14:47.879Z,47.09
2022-08-18T10:22:11.157Z,48.68
2022-08-18T10:25:09.201Z,50.29
2022-08-18T10:28:50.272Z,50.46
2022-08-18T10:31:59.838Z,50.87
2022-08-18T10:34:53.199Z,51.12
2022-08-18T10:41:26.284Z,50.97
2022-08-18T10:44:28.864Z,50.88
2022-08-18T10:47:33.486Z,50.87
2022-08-18T10:50:23.257Z,50.54
2022-08-18T10:53:44.042Z,50.42
2022-08-18T10:56:45.528Z,50.12
2022-08-18T12:14:35.316Z,38.79
2022-08-18T12:17:52.404Z,38.53
2022-08-18T12:20:39.220Z,38.71
2022-08-18T12:23:25.174Z,38.15
2022-08-18T12:26:26.867Z,37.81
2022-08-18T12:38:56.095Z,36.99
2022-08-18T12:41:42.745Z,36.81
2022-08-18T12:44:29.031Z,36.64
2022-08-18T12:47:20.721Z,36.21
2022-08-18T12:50:08.793Z,35.88
2022-08-18T12:52:56.923Z,35.16
2022-08-18T12:55:45.686Z,35.03
2022-08-18T12:58:31.763Z,34.91
2022-08-18T13:01:25.213Z,34.75
2022-08-18T13:04:13.995Z,33.98
2022-08-18T13:07:05.799Z,33.89
2022-08-18T13:09:53.743Z,33.45
2022-08-18T13:12:40.479Z,33.51
2022-08-18T13:15:28.917Z,33.40
2022-08-18T13:18:16.735Z,32.86
2022-08-18T13:21:07.341Z,33.09
2022-08-18T13:23:53.355Z,32.63
2022-08-18T13:26:42.764Z,32.49
2022-08-18T13:29:33.656Z,31.81
2022-08-18T13:32:19.774Z,31.35
2022-08-18T13:35:09.139Z,31.36
2022-08-18T13:37:59.764Z,31.37
2022-08-18T13:40:47.168Z,31.60
2022-08-18T13:43:39.279Z,30.90
2022-08-18T13:46:29.833Z,30.75
2022-08-18T13:49:23.595Z,30.42
2022-08-18T13:52:33.092Z,30.11
2022-08-18T13:55:20.696Z,29.91
2022-08-18T13:58:17.405Z,29.67
2022-08-18T14:01:42.238Z,29.53
2022-08-18T14:04:20.245Z,29.33
2022-08-18T14:07:11.076Z,29.41
2022-08-18T14:09:59.144Z,29.43
2022-08-18T14:12:56.938Z,29.55
2022-08-18T14:15:48.046Z,28.91
2022-08-18T14:18:37.429Z,28.86
2022-08-18T14:21:44.806Z,28.93
2022-08-18T14:24:53.913Z,29.08
2022-08-18T14:27:40.048Z,29.04
2022-08-18T14:30:27.440Z,28.87
2022-08-18T14:36:05.858Z,28.78
2022-08-18T14:38:53.088Z,28.30
2022-08-18T14:41:41.024Z,27.69
2022-08-18T14:44:41.611Z,27.41
2022-08-18T14:47:33.137Z,27.31
2022-08-18T14:50:25.193Z,26.67
2022-08-18T14:53:15.065Z,26.82
2022-08-18T14:56:01.267Z,26.42
2022-08-18T14:58:47.708Z,25.76
2022-08-18T15:01:36.596Z,25.65
2022-08-18T15:04:30.439Z,25.60
2022-08-18T15:07:18.220Z,25.00
2022-08-18T15:10:16.131Z,25.31
2022-08-18T15:13:03.267Z,24.68
2022-08-18T15:15:51.820Z,24.66
2022-08-18T15:18:38.069Z,24.52
2022-08-18T15:21:42.568Z,24.36
2022-08-18T15:24:48.197Z,24.37
2022-08-18T15:27:42.303Z,24.10
2022-08-18T15:30:51.359Z,24.29
2022-08-18T15:33:37.628Z,24.20
2022-08-18T15:36:29.138Z,24.36
2022-08-18T15:39:15.928Z,24.25
2022-08-18T15:42:15.287Z,24.59
2022-08-18T15:45:11.906Z,24.62
2022-08-18T15:48:04.282Z,24.63
2022-08-18T15:50:52.027Z,25.00
2022-08-18T15:53:44.812Z,25.12
2022-08-18T15:56:34.130Z,25.43
2022-08-18T15:59:19.853Z,25.64
2022-08-18T16:02:11.838Z,26.10
2022-08-18T16:04:58.135Z,26.24
2022-08-18T16:07:46.076Z,26.58
2022-08-18T16:10:33.568Z,26.93
2022-08-18T16:13:20.108Z,27.08
2022-08-18T16:16:11.467Z,27.87
2022-08-18T16:18:57.558Z,27.92
2022-08-18T16:21:43.727Z,28.52
2022-08-18T16:24:29.518Z,28.69
2022-08-18T16:27:15.563Z,28.98
2022-08-18T16:30:04.705Z,29.29
2022-08-18T16:32:51.679Z,29.80
2022-08-18T16:35:38.071Z,30.02
2022-08-18T16:38:25.093Z,30.51
2022-08-18T16:41:15.091Z,30.68
2022-08-18T16:44:01.057Z,30.68
2022-08-18T16:46:50.121Z,31.27
2022-08-18T16:49:35.943Z,31.72
2022-08-18T16:52:21.771Z,31.80
2022-08-18T16:55:09.862Z,31.91
2022-08-18T16:58:15.694Z,32.12
2022-08-18T17:01:21.657Z,32.51
2022-08-18T17:04:13.521Z,32.84
2022-08-18T17:07:03.205Z,33.21
2022-08-18T17:09:48.995Z,33.41
2022-08-18T17:12:36.026Z,33.63
2022-08-18T17:15:21.782Z,33.84
2022-08-18T17:18:08.112Z,34.30
2022-08-18T17:20:55.507Z,34.36
2022-08-18T17:23:42.187Z,34.77
2022-08-18T17:26:53.087Z,35.97
2022-08-18T17:30:03.576Z,36.30
2022-08-18T17:33:06.170Z,35.90
2022-08-18T17:35:54.231Z,35.51
2022-08-18T17:38:50.227Z,35.83
2022-08-18T17:42:01.048Z,36.28
2022-08-18T17:44:52.296Z,36.05
2022-08-18T17:48:00.877Z,37.01
2022-08-18T17:51:08.545Z,36.58
2022-08-18T17:53:54.650Z,36.70
2022-08-18T17:56:45.562Z,36.95
2022-08-18T18:00:06.138Z,37.30
2022-08-18T18:03:01.307Z,37.51
2022-08-18T18:05:53.325Z,37.49
2022-08-18T18:08:55.535Z,37.46
2022-08-18T18:11:47.167Z,37.63
2022-08-18T18:14:38.274Z,37.78
2022-08-18T18:17:32.557Z,38.10
2022-08-18T18:20:38.489Z,39.13
2022-08-18T18:23:29.750Z,38.67
2022-08-18T18:26:29.725Z,39.07
2022-08-18T18:29:33.300Z,38.94
2022-08-18T18:32:38.915Z,39.49
2022-08-18T18:35:34.417Z,38.85
2022-08-18T18:39:22.274Z,39.30
2022-08-18T18:42:35.147Z,39.14
2022-08-18T18:45:31.244Z,39.26
2022-08-18T18:48:48.146Z,39.41
2022-08-18T18:51:50.840Z,39.88
2022-08-18T18:54:49.696Z,39.79
2022-08-18T18:57:49.573Z,39.92
2022-08-18T19:00:53.990Z,40.34
2022-08-18T19:03:46.344Z,40.34
2022-08-18T19:06:44.120Z,40.39
2022-08-18T20:09:50.193Z,43.97
2022-08-18T20:13:00.835Z,44.03
2022-08-18T20:16:15.194Z,44.14
2022-08-18T20:19:01.604Z,43.63
2022-08-18T20:22:07.717Z,43.56
2022-08-18T20:25:20.091Z,43.71
2022-08-18T20:28:12.829Z,43.72
2022-08-18T20:31:17.053Z,43.81
2022-08-18T20:34:14.031Z,43.52
2022-08-18T20:37:08.156Z,43.28
2022-08-18T20:39:55.598Z,43.71
2022-08-18T20:42:55.749Z,43.57
2022-08-18T20:45:46.126Z,43.41
2022-08-18T20:49:14.126Z,43.91
2022-08-18T20:52:13.353Z,43.35
2022-08-18T20:55:35.001Z,44.09
2022-08-18T20:58:25.925Z,43.56
2022-08-18T21:01:23.129Z,43.68
2022-08-18T21:09:00.889Z,44.26
2022-08-18T21:11:47.631Z,43.64
2022-08-18T21:14:34.041Z,43.56
2022-08-18T21:17:20.518Z,43.62
2022-08-18T21:20:19.320Z,43.84
2022-08-18T21:23:13.313Z,44.00
2022-08-18T21:26:06.603Z,43.75
2022-08-18T21:29:09.019Z,44.02
2022-08-18T21:32:08.054Z,44.08
2022-08-18T21:34:55.233Z,44.16
2022-08-18T21:38:00.162Z,44.16
2022-08-18T21:40:48.648Z,44.28
2022-08-18T21:43:49.358Z,44.20
2022-08-18T21:46:35.869Z,44.00
2022-08-18T21:49:27.553Z,44.12
2022-08-18T21:52:24.298Z,44.22
2022-08-18T21:55:21.712Z,44.54
2022-08-18T21:58:10.446Z,44.16
2022-08-18T22:01:26.196Z,44.28
2022-08-18T22:04:25.174Z,44.40
2022-08-18T22:07:34.748Z,44.39
2022-08-18T22:10:48.243Z,44.52
2022-08-18T22:13:59.763Z,44.61
2022-08-18T22:16:48.144Z,44.41
2022-08-18T22:19:34.293Z,44.60
2022-08-18T22:22:40.162Z,44.44
2022-08-18T22:25:26.661Z,44.55
2022-08-18T22:28:12.521Z,44.78
2022-08-18T22:31:00.367Z,44.45
2022-08-18T22:33:46.499Z,44.54
2022-08-18T22:36:36.396Z,44.72
2022-08-18T22:39:51.950Z,44.71
2022-08-18T22:42:39.075Z,44.65
2022-08-18T22:45:25.302Z,44.71
2022-08-18T22:48:11.761Z,44.55
2022-08-18T22:50:58.408Z,44.83
2022-08-18T22:53:46.679Z,44.74
2022-08-18T22:56:34.415Z,44.90
2022-08-18T22:59:21.224Z,44.84
2022-08-18T23:02:07.803Z,44.68
2022-08-18T23:04:53.513Z,44.81
2022-08-18T23:07:39.329Z,44.90
2022-08-18T23:10:26.634Z,44.77
2022-08-18T23:13:12.823Z,45.01
2022-08-18T23:16:30.921Z,44.95
2022-08-18T23:19:05.827Z,44.96
2022-08-18T23:21:52.471Z,44.99
2022-08-18T23:24:38.797Z,45.07
2022-08-18T23:27:24.882Z,45.11
2022-08-18T23:30:12.274Z,45.01
2022-08-18T23:32:58.372Z,45.02
2022-08-18T23:35:44.150Z,45.22
2022-08-18T23:38:31.779Z,44.99
2022-08-18T23:41:17.603Z,45.19
2022-08-18T23:44:03.742Z,45.17
2022-08-18T23:46:49.576Z,45.35
2022-08-18T23:49:36.827Z,45.29
2022-08-18T23:52:22.970Z,45.52
2022-08-18T23:55:12.515Z,45.49
2022-08-18T23:57:58.193Z,45.48
